Time;durP1;ratioP1;P1;durP2;ratioP2;P2;SDS_P1;SDS_P2;PMS_P1;PMS_P2;Temp;Humidity;BMP_temperature;BMP_pressure;BME280_temperature;BME280_humidity;BME280_pressure;Samples;Min_cycle;Max_cycle;Signal;HPM_P1;HPM_P2
2022/05/11 00:01:17;;;;;;;9.83;8.70;;;16.60;99.90;;;;;;5020815;28;20993;-73
2022/05/11 00:03:43;;;;;;;10.90;9.40;;;16.50;99.90;;;;;;5024108;28;20461;-74
2022/05/11 00:06:10;;;;;;;11.23;9.27;;;16.50;99.90;;;;;;5020354;28;20513;-74
2022/05/11 00:08:37;;;;;;;11.17;9.70;;;16.50;99.90;;;;;;5028496;28;20487;-73
2022/05/11 00:11:05;;;;;;;14.47;9.20;;;16.50;99.90;;;;;;5017792;28;20464;-73
2022/05/11 00:13:32;;;;;;;15.70;10.37;;;16.50;99.90;;;;;;5020730;28;20673;-72
2022/05/11 00:15:59;;;;;;;16.17;9.30;;;16.50;99.90;;;;;;5025650;28;20449;-73
2022/05/11 00:18:26;;;;;;;10.40;8.33;;;16.50;99.90;;;;;;5031940;28;20982;-73
2022/05/11 00:20:53;;;;;;;9.43;8.53;;;16.50;99.90;;;;;;5035100;28;20451;-73
2022/05/11 00:23:19;;;;;;;8.23;7.47;;;16.50;99.90;;;;;;5050624;28;20426;-73
2022/05/11 00:25:46;;;;;;;12.33;9.40;;;16.50;99.90;;;;;;5051676;28;20448;-73
2022/05/11 00:28:15;;;;;;;10.17;8.70;;;16.50;99.90;;;;;;5049142;28;20856;-73
2022/05/11 00:30:42;;;;;;;8.70;7.90;;;16.50;99.90;;;;;;5017546;28;20449;-73
2022/05/11 00:33:11;;;;;;;20.53;8.83;;;16.40;99.90;;;;;;5031897;28;20465;-73
2022/05/11 00:35:37;;;;;;;11.30;8.73;;;16.40;99.90;;;;;;5038792;28;20496;-73
2022/05/11 00:38:05;;;;;;;10.53;8.27;;;16.40;99.90;;;;;;5042450;28;20877;-73
2022/05/11 00:40:33;;;;;;;8.83;7.90;;;16.40;99.90;;;;;;5034389;28;21215;-72
2022/05/11 00:43:00;;;;;;;13.60;8.37;;;16.40;99.90;;;;;;5021075;28;20435;-73
2022/05/11 00:45:28;;;;;;;10.70;8.40;;;16.40;99.90;;;;;;5031463;28;20460;-72
2022/05/11 00:47:59;;;;;;;10.70;8.67;;;16.40;99.90;;;;;;5036055;28;20452;-73
2022/05/11 00:50:28;;;;;;;9.07;8.17;;;16.40;99.90;;;;;;5023859;28;20432;-72
2022/05/11 00:52:58;;;;;;;9.93;8.77;;;16.40;99.90;;;;;;5031559;28;20539;-72
2022/05/11 00:55:29;;;;;;;9.47;8.00;;;16.40;99.90;;;;;;5015057;28;20489;-73
2022/05/11 00:58:03;;;;;;;12.10;8.93;;;16.40;99.90;;;;;;5031586;28;20453;-73
2022/05/11 01:00:31;;;;;;;11.20;8.93;;;16.40;99.90;;;;;;5031424;28;20515;-73
2022/05/11 01:03:02;;;;;;;8.97;8.17;;;16.40;99.90;;;;;;5031788;28;20423;-72
2022/05/11 01:05:29;;;;;;;11.37;8.60;;;16.40;99.90;;;;;;5014680;28;20440;-73
2022/05/11 01:07:57;;;;;;;14.70;9.77;;;16.40;99.90;;;;;;5038299;28;20460;-73
2022/05/11 01:10:26;;;;;;;10.23;9.13;;;16.40;99.90;;;;;;5038096;28;20467;-73
2022/05/11 01:12:57;;;;;;;16.57;9.73;;;16.30;99.90;;;;;;5031654;28;20485;-73
2022/05/11 01:15:26;;;;;;;13.23;10.13;;;16.30;99.90;;;;;;5042946;28;20518;-73
2022/05/11 01:17:55;;;;;;;12.03;9.43;;;16.30;99.90;;;;;;5035701;28;20473;-73
2022/05/11 01:20:23;;;;;;;10.33;9.30;;;16.30;99.90;;;;;;5030766;28;20454;-73
2022/05/11 01:22:57;;;;;;;11.30;9.00;;;16.20;99.90;;;;;;5037888;28;20423;-74
2022/05/11 01:25:25;;;;;;;13.77;9.70;;;16.20;99.90;;;;;;5033840;28;20459;-73
2022/05/11 01:28:02;;;;;;;11.67;9.80;;;16.10;99.90;;;;;;5037816;28;20427;-72
2022/05/11 01:30:29;;;;;;;12.20;10.13;;;16.10;99.90;;;;;;5030407;28;20448;-73
2022/05/11 01:32:56;;;;;;;11.37;10.23;;;16.00;99.90;;;;;;5050373;28;21000;-73
2022/05/11 01:35:36;;;;;;;14.60;10.23;;;16.00;99.90;;;;;;5046446;28;20463;-74
2022/05/11 01:38:13;;;;;;;11.97;10.57;;;16.00;99.90;;;;;;5033343;28;20448;-72
2022/05/11 01:40:41;;;;;;;11.73;10.53;;;15.90;99.90;;;;;;5033801;28;20488;-73
2022/05/11 01:43:08;;;;;;;15.60;10.60;;;15.90;99.90;;;;;;5028067;28;20429;-72
2022/05/11 01:45:35;;;;;;;18.60;10.80;;;15.90;99.90;;;;;;5028400;28;20428;-72
2022/05/11 01:48:01;;;;;;;14.70;10.90;;;15.80;99.90;;;;;;5038276;28;20423;-73
2022/05/11 01:50:28;;;;;;;12.83;11.13;;;15.70;99.90;;;;;;5033126;28;20453;-73
2022/05/11 01:52:55;;;;;;;11.83;10.63;;;15.70;99.90;;;;;;5031291;28;20513;-73
2022/05/11 01:55:22;;;;;;;16.13;12.37;;;15.60;99.90;;;;;;5030068;28;20435;-72
2022/05/11 01:57:50;;;;;;;17.57;11.20;;;15.50;99.90;;;;;;5037200;28;20432;-72
2022/05/11 02:00:17;;;;;;;14.40;12.10;;;15.50;99.90;;;;;;5015414;28;20466;-73
2022/05/11 02:02:44;;;;;;;11.63;10.43;;;15.50;99.90;;;;;;5032240;28;20454;-73
2022/05/11 02:08:06;;;;;;;15.17;11.43;;;15.40;99.90;;;;;;4953052;29;21007;-73
2022/05/11 02:10:34;;;;;;;13.30;11.20;;;15.40;99.90;;;;;;5007087;28;20428;-73
2022/05/11 02:13:02;;;;;;;16.27;11.80;;;15.30;99.90;;;;;;5034175;28;20510;-72
2022/05/11 02:15:29;;;;;;;12.33;11.00;;;15.30;99.90;;;;;;5028440;28;20446;-73
2022/05/11 02:17:55;;;;;;;14.97;12.23;;;15.30;99.90;;;;;;5041043;28;20455;-73
2022/05/11 02:20:24;;;;;;;15.10;11.73;;;15.20;99.90;;;;;;5034131;28;20428;-73
2022/05/11 02:22:51;;;;;;;19.97;12.90;;;15.20;99.90;;;;;;5038812;28;20459;-73
2022/05/11 02:25:19;;;;;;;13.07;11.77;;;15.20;99.90;;;;;;5049843;28;20460;-73
2022/05/11 02:27:47;;;;;;;15.77;12.50;;;15.10;99.90;;;;;;5046583;28;20432;-72
2022/05/11 02:30:17;;;;;;;18.50;12.80;;;15.10;99.90;;;;;;5030931;28;20949;-72
2022/05/11 02:32:44;;;;;;;21.50;13.57;;;15.00;99.90;;;;;;5053899;28;20530;-73
2022/05/11 02:35:14;;;;;;;18.03;12.87;;;15.00;99.90;;;;;;5043826;28;20515;-73
2022/05/11 02:37:42;;;;;;;22.07;13.60;;;14.90;99.90;;;;;;5039477;28;20452;-73
2022/05/11 02:40:10;;;;;;;18.37;13.00;;;14.90;99.90;;;;;;5036022;28;20464;-72
2022/05/11 02:42:36;;;;;;;16.80;13.10;;;14.80;99.90;;;;;;5045056;28;20472;-72
2022/05/11 02:45:04;;;;;;;17.33;12.47;;;14.70;99.90;;;;;;5035877;28;20457;-73
2022/05/11 02:47:32;;;;;;;16.07;12.70;;;14.80;99.90;;;;;;5036848;28;20456;-72
2022/05/11 02:49:58;;;;;;;16.50;12.70;;;14.70;99.90;;;;;;5038787;28;20453;-73
2022/05/11 02:52:25;;;;;;;15.17;13.00;;;14.70;99.90;;;;;;5034013;28;20489;-73
2022/05/11 02:54:52;;;;;;;22.97;13.50;;;14.70;99.90;;;;;;5033525;28;21101;-73
2022/05/11 02:57:18;;;;;;;18.03;12.70;;;14.70;99.90;;;;;;5034979;28;20461;-73
2022/05/11 02:59:45;;;;;;;16.27;13.27;;;14.60;99.90;;;;;;5038219;28;20464;-72
2022/05/11 03:02:12;;;;;;;16.73;12.37;;;14.60;99.90;;;;;;5033807;28;20504;-73
2022/05/11 03:04:40;;;;;;;18.33;12.10;;;14.60;99.90;;;;;;5038252;28;20502;-73
2022/05/11 03:07:07;;;;;;;13.53;12.13;;;14.60;99.90;;;;;;5052458;28;20452;-72
2022/05/11 03:09:33;;;;;;;15.90;13.00;;;14.60;99.90;;;;;;5033362;28;20453;-72
2022/05/11 03:12:01;;;;;;;17.30;13.03;;;14.60;99.90;;;;;;5032860;28;21079;-72
2022/05/11 03:14:28;;;;;;;16.80;12.60;;;14.60;99.90;;;;;;5038300;28;20456;-73
2022/05/11 03:16:55;;;;;;;16.60;12.80;;;14.50;99.90;;;;;;5043131;28;20460;-73
2022/05/11 03:19:22;;;;;;;15.70;12.70;;;14.50;99.90;;;;;;5037577;28;20458;-73
2022/05/11 03:21:50;;;;;;;18.33;11.67;;;14.50;99.90;;;;;;5050641;28;20451;-73
2022/05/11 03:24:18;;;;;;;16.80;12.77;;;14.50;99.90;;;;;;5049993;28;20453;-72
2022/05/11 03:26:44;;;;;;;16.57;11.90;;;14.50;99.90;;;;;;5033316;28;20458;-73
2022/05/11 03:29:11;;;;;;;14.17;11.97;;;14.50;99.90;;;;;;5037412;28;20476;-73
2022/05/11 03:31:39;;;;;;;13.50;11.90;;;14.50;99.90;;;;;;5033374;28;20473;-73
2022/05/11 03:36:53;;;;;;;18.10;13.57;;;14.40;99.90;;;;;;5041573;28;20703;-72
2022/05/11 03:39:20;;;;;;;16.93;12.70;;;14.40;99.90;;;;;;5040776;28;20432;-72
2022/05/11 03:41:46;;;;;;;16.93;13.83;;;14.30;99.90;;;;;;5031581;28;20469;-73
2022/05/11 03:44:14;;;;;;;14.50;12.83;;;14.30;99.90;;;;;;5032157;28;20453;-73
2022/05/11 03:46:42;;;;;;;19.80;13.00;;;14.30;99.90;;;;;;5032953;28;20457;-73
2022/05/11 03:49:10;;;;;;;16.97;13.27;;;14.20;99.90;;;;;;5042289;28;20466;-73
2022/05/11 03:51:36;;;;;;;17.77;13.57;;;14.20;99.90;;;;;;5041627;28;20559;-73
2022/05/11 03:54:04;;;;;;;15.57;13.53;;;14.10;99.90;;;;;;5024612;28;20485;-73
2022/05/11 03:56:31;;;;;;;15.77;14.03;;;14.10;99.90;;;;;;5043503;28;20872;-73
2022/05/11 03:58:58;;;;;;;15.27;13.10;;;14.10;99.90;;;;;;5025660;28;20943;-72
2022/05/11 04:01:24;;;;;;;18.10;13.97;;;14.10;99.90;;;;;;5012816;28;20528;-72
2022/05/11 04:03:51;;;;;;;17.97;12.57;;;14.10;99.90;;;;;;5030115;28;20445;-71
2022/05/11 04:06:18;;;;;;;18.50;14.13;;;14.10;99.90;;;;;;5032498;28;20850;-71
2022/05/11 04:08:44;;;;;;;17.40;13.33;;;14.00;99.90;;;;;;5040722;28;20499;-71
2022/05/11 04:11:12;;;;;;;20.60;14.80;;;14.00;99.90;;;;;;5033316;28;20477;-71
2022/05/11 04:13:40;;;;;;;17.43;13.67;;;14.10;99.90;;;;;;5028224;28;20490;-71
2022/05/11 04:16:08;;;;;;;17.60;14.80;;;14.00;99.90;;;;;;5032087;28;20449;-71
2022/05/11 04:18:35;;;;;;;23.03;14.60;;;14.00;99.90;;;;;;5038870;28;20453;-72
2022/05/11 04:21:03;;;;;;;20.37;14.53;;;14.00;99.90;;;;;;5032241;28;20473;-72
2022/05/11 04:23:29;;;;;;;21.57;15.30;;;14.00;99.90;;;;;;5046184;28;20808;-72
2022/05/11 04:25:56;;;;;;;17.17;13.60;;;14.10;99.90;;;;;;5046705;28;20445;-72
2022/05/11 04:28:24;;;;;;;17.97;14.80;;;14.00;99.90;;;;;;5042227;28;20449;-71
2022/05/11 04:30:51;;;;;;;17.77;14.67;;;14.00;99.90;;;;;;5011334;28;20478;-72
2022/05/11 04:33:18;;;;;;;18.47;15.10;;;14.10;99.90;;;;;;5024386;28;20481;-71
2022/05/11 04:35:44;;;;;;;17.60;15.00;;;14.20;99.90;;;;;;5031679;28;20461;-71
2022/05/11 04:38:11;;;;;;;21.03;14.43;;;14.20;99.90;;;;;;5042106;28;20456;-71
2022/05/11 04:40:37;;;;;;;18.47;14.70;;;14.30;99.90;;;;;;5032825;28;20473;-72
2022/05/11 04:43:09;;;;;;;17.23;14.47;;;14.40;99.90;;;;;;5049852;28;20445;-71
2022/05/11 04:45:38;;;;;;;18.93;14.40;;;14.40;99.90;;;;;;5017714;28;20462;-71
2022/05/11 04:48:05;;;;;;;20.70;14.80;;;14.40;99.90;;;;;;5015729;28;20504;-72
2022/05/11 04:50:32;;;;;;;16.03;14.10;;;14.50;99.90;;;;;;5028287;28;20457;-71
2022/05/11 04:52:59;;;;;;;20.60;14.60;;;14.50;99.90;;;;;;5031636;28;20599;-72
2022/05/11 04:55:26;;;;;;;17.10;14.33;;;14.60;99.90;;;;;;5043319;28;20866;-72
2022/05/11 04:57:52;;;;;;;19.80;14.73;;;14.60;99.90;;;;;;5052044;28;20444;-71
2022/05/11 05:00:19;;;;;;;21.63;14.07;;;14.60;99.90;;;;;;5033134;28;20507;-71
2022/05/11 05:02:47;;;;;;;20.77;14.87;;;14.60;99.90;;;;;;5048989;28;20456;-72
2022/05/11 05:05:15;;;;;;;19.67;15.47;;;14.60;99.90;;;;;;5040108;28;20620;-71
2022/05/11 05:07:42;;;;;;;22.33;14.73;;;14.60;99.90;;;;;;5045142;28;20529;-71
2022/05/11 05:10:12;;;;;;;21.97;15.47;;;14.70;99.90;;;;;;5033315;28;20451;-72
2022/05/11 05:12:39;;;;;;;19.70;15.10;;;14.70;99.90;;;;;;5024821;28;20489;-72
2022/05/11 05:15:07;;;;;;;20.23;15.27;;;14.80;99.90;;;;;;5013482;28;20454;-71
2022/05/11 05:17:34;;;;;;;22.47;14.30;;;14.80;99.90;;;;;;5035297;28;20506;-71
2022/05/11 05:20:02;;;;;;;15.73;13.80;;;14.80;99.90;;;;;;5042669;28;20453;-71
2022/05/11 05:22:29;;;;;;;17.37;14.70;;;14.80;99.90;;;;;;5032189;28;21027;-72
2022/05/11 05:24:55;;;;;;;18.47;14.60;;;14.90;99.90;;;;;;5031055;28;20816;-72
2022/05/11 05:27:22;;;;;;;17.80;14.20;;;15.00;99.90;;;;;;5031520;28;20454;-71
2022/05/11 05:32:35;;;;;;;15.37;13.77;;;15.00;99.90;;;;;;5028102;28;20569;-71
2022/05/11 05:35:05;;;;;;;16.10;13.70;;;15.00;99.90;;;;;;5042088;28;20482;-71
2022/05/11 05:37:32;;;;;;;16.50;14.17;;;15.00;99.90;;;;;;5044894;28;20515;-71
2022/05/11 05:39:58;;;;;;;20.70;14.40;;;15.10;99.90;;;;;;5034973;28;20947;-72
2022/05/11 05:42:27;;;;;;;16.80;14.30;;;15.20;99.90;;;;;;5030334;28;20473;-72
2022/05/11 05:44:54;;;;;;;19.17;14.20;;;15.30;99.90;;;;;;5030435;28;21015;-72
2022/05/11 05:47:20;;;;;;;18.90;12.23;;;15.50;99.90;;;;;;5033729;28;20430;-71
2022/05/11 05:49:47;;;;;;;16.20;13.77;;;15.80;99.90;;;;;;5041073;28;20859;-72
2022/05/11 05:52:17;;;;;;;15.80;12.70;;;16.20;99.90;;;;;;5043424;28;20443;-72
2022/05/11 05:54:45;;;;;;;21.23;12.83;;;16.50;99.90;;;;;;5034603;28;20445;-72
2022/05/11 05:57:12;;;;;;;19.30;13.07;;;16.80;99.90;;;;;;5031299;28;20430;-72
2022/05/11 05:59:39;;;;;;;20.23;13.03;;;17.20;99.90;;;;;;5030881;28;20924;-73
2022/05/11 06:02:08;;;;;;;15.40;11.13;;;17.40;99.90;;;;;;5024236;28;20531;-73
2022/05/11 06:04:35;;;;;;;14.93;11.63;;;17.70;99.90;;;;;;5029192;28;20884;-73
2022/05/11 06:07:01;;;;;;;13.00;11.10;;;18.00;99.90;;;;;;5026253;28;21190;-73
2022/05/11 06:09:29;;;;;;;12.47;11.20;;;18.20;99.90;;;;;;5033043;28;20422;-74
2022/05/11 06:11:56;;;;;;;14.60;11.00;;;18.50;99.90;;;;;;5030441;28;20510;-73
2022/05/11 06:14:23;;;;;;;12.70;11.20;;;18.90;99.90;;;;;;5029396;28;20447;-74
2022/05/11 06:16:49;;;;;;;15.80;10.23;;;19.20;99.90;;;;;;5012565;28;20457;-73
2022/05/11 06:19:16;;;;;;;12.23;10.93;;;19.50;99.90;;;;;;5017087;28;20461;-73
2022/05/11 06:21:44;;;;;;;10.63;9.60;;;19.70;99.90;;;;;;5031316;28;20486;-73
2022/05/11 06:24:11;;;;;;;13.90;10.27;;;19.90;99.90;;;;;;5030170;28;20517;-73
2022/05/11 06:26:39;;;;;;;12.83;10.00;;;20.10;99.90;;;;;;5030916;28;20439;-73
2022/05/11 06:29:06;;;;;;;12.17;8.67;;;20.30;99.90;;;;;;5046544;28;20488;-77
2022/05/11 06:31:32;;;;;;;14.37;11.93;;;20.40;99.90;;;;;;5039926;28;20458;-77
2022/05/11 06:33:59;;;;;;;15.43;11.07;;;20.60;99.90;;;;;;5050370;28;20488;-76
2022/05/11 06:36:26;;;;;;;13.47;10.63;;;20.80;99.90;;;;;;5038975;28;20428;-76
2022/05/11 06:38:54;;;;;;;11.73;8.57;;;21.00;99.90;;;;;;5045325;28;20889;-77
2022/05/11 06:41:23;;;;;;;10.50;7.80;;;21.00;99.90;;;;;;5035446;28;20853;-77
2022/05/11 06:43:51;;;;;;;12.10;8.50;;;21.10;99.90;;;;;;5030333;28;20946;-76
2022/05/11 06:46:18;;;;;;;7.40;6.33;;;21.30;99.90;;;;;;5028578;28;20471;-76
2022/05/11 06:48:46;;;;;;;9.83;6.10;;;21.60;99.90;;;;;;5036646;28;20882;-76
2022/05/11 06:51:13;;;;;;;8.70;5.87;;;21.70;99.90;;;;;;5032549;28;20531;-76
2022/05/11 06:59:21;;;;;;;9.57;6.07;;;22.10;99.90;;;;;;5035318;28;20444;-75
2022/05/11 07:01:48;;;;;;;6.27;5.77;;;22.30;99.90;;;;;;5039970;28;21025;-77
2022/05/11 07:04:15;;;;;;;6.30;5.70;;;22.40;99.90;;;;;;5052692;28;21030;-76
2022/05/11 07:06:41;;;;;;;10.20;6.00;;;22.40;99.90;;;;;;5050074;28;20456;-76
2022/05/11 07:09:09;;;;;;;8.83;5.90;;;22.60;99.90;;;;;;5035381;28;20532;-77
2022/05/11 07:14:20;;;;;;;5.80;5.30;;;23.20;99.90;;;;;;5011354;28;20861;-77
2022/05/11 07:16:47;;;;;;;5.70;5.10;;;23.40;99.90;;;;;;5031344;28;20583;-76
2022/05/11 07:19:14;;;;;;;6.53;5.50;;;23.50;99.90;;;;;;5028835;28;20511;-76
2022/05/11 07:21:41;;;;;;;6.13;5.53;;;23.50;99.90;;;;;;5030512;28;20568;-76
2022/05/11 07:24:07;;;;;;;9.17;6.73;;;23.50;99.90;;;;;;5048666;28;20456;-77
2022/05/11 07:26:34;;;;;;;6.53;5.00;;;23.50;99.90;;;;;;5032819;28;20453;-77
2022/05/11 07:29:01;;;;;;;9.87;5.50;;;23.50;99.90;;;;;;5033671;28;20952;-78
2022/05/11 07:31:29;;;;;;;7.63;5.20;;;23.60;99.90;;;;;;5034643;28;20984;-76
2022/05/11 07:33:55;;;;;;;5.70;5.20;;;23.80;99.90;;;;;;5039137;28;20485;-77
2022/05/11 07:36:24;;;;;;;5.63;5.10;;;23.80;99.90;;;;;;5021154;28;20839;-78
2022/05/11 07:38:51;;;;;;;7.00;5.03;;;23.90;99.90;;;;;;5030649;28;20457;-78
2022/05/11 07:41:18;;;;;;;6.93;5.57;;;24.00;99.90;;;;;;5032724;28;21002;-77
2022/05/11 07:43:45;;;;;;;5.20;4.70;;;24.30;99.90;;;;;;5029021;28;20450;-77
2022/05/11 07:46:12;;;;;;;5.20;4.80;;;24.50;99.90;;;;;;5030247;28;20461;-78
2022/05/11 07:48:40;;;;;;;7.33;5.20;;;24.60;99.90;;;;;;5049094;28;21009;-79
2022/05/11 07:51:06;;;;;;;7.47;4.73;;;24.60;99.90;;;;;;5046358;28;20472;-78
2022/05/11 07:53:33;;;;;;;6.10;5.50;;;24.60;99.90;;;;;;5043811;28;20558;-78
2022/05/11 08:01:28;;;;;;;10.13;5.37;;;24.70;99.90;;;;;;5025065;28;20838;-77
2022/05/11 08:03:56;;;;;;;10.17;4.87;;;24.70;99.90;;;;;;5030009;28;21004;-78
2022/05/11 08:06:23;;;;;;;5.43;4.90;;;24.80;99.90;;;;;;5033113;28;20449;-78
2022/05/11 08:08:50;;;;;;;5.17;4.77;;;25.00;99.90;;;;;;5032722;28;20878;-78
2022/05/11 08:11:17;;;;;;;8.53;5.50;;;25.30;99.90;;;;;;5035112;28;20480;-77
2022/05/11 08:13:44;;;;;;;5.47;4.97;;;25.50;99.90;;;;;;5030103;28;20486;-77
2022/05/11 08:16:11;;;;;;;13.03;5.73;;;25.80;99.90;;;;;;5042556;28;20453;-78
2022/05/11 08:18:37;;;;;;;6.23;5.20;;;25.80;99.90;;;;;;5030174;28;20453;-78
2022/05/11 08:21:06;;;;;;;5.33;4.93;;;25.80;99.90;;;;;;5032414;28;20469;-77
2022/05/11 08:23:33;;;;;;;6.43;4.50;;;25.90;99.90;;;;;;5037555;28;20446;-77
2022/05/11 08:26:00;;;;;;;5.60;4.80;;;25.80;99.90;;;;;;5025314;28;20450;-78
2022/05/11 08:28:27;;;;;;;5.83;5.23;;;25.70;99.90;;;;;;5031291;28;20456;-78
2022/05/11 08:33:40;;;;;;;8.23;4.07;;;25.90;99.90;;;;;;5036724;28;21007;-77
2022/05/11 08:36:12;;;;;;;8.80;5.23;;;25.90;99.90;;;;;;5031076;28;20449;-78
2022/05/11 08:38:42;;;;;;;7.33;4.70;;;26.00;99.90;;;;;;5012226;28;20804;-78
2022/05/11 08:41:15;;;;;;;5.53;4.57;;;26.10;99.90;;;;;;5011892;28;20556;-79
2022/05/11 08:43:43;;;;;;;8.20;4.90;;;26.10;99.90;;;;;;5022420;28;20507;-78
2022/05/11 08:46:21;;;;;;;7.13;4.60;;;25.90;99.90;;;;;;5022463;28;20450;-78
2022/05/11 08:48:56;;;;;;;6.93;4.70;;;26.10;99.90;;;;;;5011693;28;20456;-77
2022/05/11 08:51:30;;;;;;;6.80;4.73;;;26.00;99.90;;;;;;5011846;28;20480;-78
2022/05/11 08:54:08;;;;;;;5.23;4.83;;;26.00;99.90;;;;;;5018694;28;20484;-78
2022/05/11 08:56:35;;;;;;;6.30;4.93;;;26.00;99.90;;;;;;5017733;28;20508;-78
2022/05/11 08:59:02;;;;;;;8.43;5.00;;;26.00;99.90;;;;;;5020783;28;20445;-78
2022/05/11 09:01:34;;;;;;;5.37;4.87;;;26.00;99.90;;;;;;5023323;28;20470;-78
2022/05/11 09:04:07;;;;;;;7.23;5.00;;;26.10;99.90;;;;;;5024259;28;20441;-79
2022/05/11 09:06:37;;;;;;;8.03;4.70;;;26.20;99.90;;;;;;5039651;28;20536;-80
2022/05/11 09:09:05;;;;;;;7.17;5.47;;;26.30;99.90;;;;;;5044846;28;20448;-78
2022/05/11 09:11:35;;;;;;;7.93;5.07;;;26.10;99.90;;;;;;5028831;28;20493;-79
2022/05/11 09:14:03;;;;;;;7.40;5.23;;;26.10;99.90;;;;;;5012133;28;21060;-79
2022/05/11 09:16:42;;;;;;;7.63;5.70;;;26.00;99.90;;;;;;5030133;28;20469;-78
2022/05/11 09:19:14;;;;;;;11.10;5.50;;;26.00;99.90;;;;;;5030860;28;20475;-75
2022/05/11 09:21:50;;;;;;;8.27;5.87;;;26.10;99.90;;;;;;5034315;28;20514;-74
2022/05/11 09:24:32;;;;;;;10.03;5.53;;;26.10;99.90;;;;;;5030240;28;20445;-74
2022/05/11 09:27:05;;;;;;;8.60;5.67;;;26.20;99.90;;;;;;5031327;28;20483;-76
2022/05/11 09:29:35;;;;;;;8.30;5.27;;;26.40;99.90;;;;;;5031270;28;20460;-75
2022/05/11 09:32:24;;;;;;;9.40;5.07;;;26.70;99.90;;;;;;5034791;28;20501;-75
2022/05/11 09:34:50;;;;;;;4.57;4.27;;;26.90;99.90;;;;;;5037412;28;20493;-75
2022/05/11 09:37:35;;;;;;;9.50;4.10;;;26.80;99.90;;;;;;5040090;28;20507;-75
2022/05/11 09:40:10;;;;;;;4.90;4.50;;;27.00;99.90;;;;;;5048104;28;20456;-75
2022/05/11 09:42:51;;;;;;;7.50;5.03;;;27.10;99.90;;;;;;5018328;28;20839;-75
2022/05/11 09:45:43;;;;;;;6.57;4.20;;;26.80;99.90;;;;;;5029881;28;20949;-75
2022/05/11 09:48:18;;;;;;;6.10;4.70;;;26.70;99.90;;;;;;5038570;28;20449;-75
2022/05/11 09:50:45;;;;;;;7.50;4.20;;;26.80;99.90;;;;;;5047461;28;20469;-73
2022/05/11 09:53:28;;;;;;;8.03;4.47;;;26.90;99.90;;;;;;5033496;28;20513;-74
2022/05/11 09:55:55;;;;;;;4.50;4.10;;;27.10;99.90;;;;;;5022429;28;20485;-73
2022/05/11 09:58:31;;;;;;;7.67;4.50;;;27.00;99.90;;;;;;5032001;28;20499;-73
2022/05/11 10:01:11;;;;;;;7.13;4.60;;;26.90;99.90;;;;;;5030552;28;20468;-74
2022/05/11 10:03:43;;;;;;;7.33;4.40;;;27.00;99.90;;;;;;5031478;28;20946;-75
2022/05/11 10:06:11;;;;;;;5.60;4.67;;;27.00;99.90;;;;;;5031031;28;20870;-75
2022/05/11 10:08:43;;;;;;;7.32;3.70;;;26.70;99.90;;;;;;5043952;28;20930;-75
2022/05/11 10:11:16;;;;;;;7.07;4.77;;;26.30;99.90;;;;;;5026032;28;20319;-74
2022/05/11 10:13:49;;;;;;;8.33;4.33;;;26.50;99.90;;;;;;5030444;28;20556;-76
2022/05/11 10:22:07;;;;;;;4.90;4.53;;;26.90;99.90;;;;;;5018538;28;20460;-76
2022/05/11 10:24:50;;;;;;;6.10;4.70;;;26.90;99.90;;;;;;5034885;28;20452;-76
2022/05/11 10:27:24;;;;;;;5.23;4.83;;;27.10;99.90;;;;;;5028125;28;20503;-75
2022/05/11 10:30:08;;;;;;;5.13;4.43;;;27.20;99.90;;;;;;5044716;28;20458;-76
2022/05/11 10:32:44;;;;;;;5.23;4.77;;;27.00;99.90;;;;;;5030151;28;20479;-76
2022/05/11 10:35:16;;;;;;;12.70;4.63;;;27.00;99.90;;;;;;5035131;28;20554;-76
2022/05/11 10:37:58;;;;;;;8.80;4.67;;;27.20;99.90;;;;;;5027838;28;20448;-76
2022/05/11 10:40:33;;;;;;;4.50;4.10;;;27.40;99.90;;;;;;5023314;28;20894;-76
2022/05/11 10:43:16;;;;;;;5.13;4.10;;;27.20;99.90;;;;;;5018820;28;20461;-76
2022/05/11 10:45:49;;;;;;;10.63;4.47;;;27.40;99.90;;;;;;5025979;28;20515;-77
2022/05/11 10:48:36;;;;;;;6.53;4.20;;;27.50;99.90;;;;;;5034888;28;20449;-76
2022/05/11 10:51:11;;;;;;;4.20;3.90;;;27.40;99.90;;;;;;5016691;28;20577;-74
2022/05/11 10:53:43;;;;;;;7.53;3.73;;;27.40;99.90;;;;;;5031395;28;20495;-74
2022/05/11 10:56:25;;;;;;;5.03;4.37;;;27.50;99.90;;;;;;5035033;28;20494;-75
2022/05/11 10:59:13;;;;;;;6.30;4.13;;;27.50;99.90;;;;;;5035472;28;20503;-75
2022/05/11 11:01:52;;;;;;;7.20;3.90;;;27.40;99.90;;;;;;5034338;28;20481;-74
2022/05/11 11:04:31;;;;;;;6.03;3.63;;;27.40;99.90;;;;;;5013720;28;21226;-74
2022/05/11 11:07:17;;;;;;;27.60;4.70;;;27.30;99.90;;;;;;5033180;28;20463;-74
2022/05/11 11:10:01;;;;;;;18.63;4.80;;;27.50;99.90;;;;;;5029308;28;20843;-74
2022/05/11 11:12:44;;;;;;;6.33;3.83;;;27.50;99.90;;;;;;5027323;28;20538;-74
2022/05/11 11:15:15;;;;;;;5.13;3.80;;;27.50;99.90;;;;;;5029210;28;20490;-73
2022/05/11 11:17:46;;;;;;;4.60;3.90;;;27.40;99.90;;;;;;5021553;28;20457;-73
2022/05/11 11:20:17;;;;;;;7.33;4.40;;;27.40;99.90;;;;;;5036804;28;20460;-74
2022/05/11 11:23:29;;;;;;;6.40;4.40;;;27.30;99.90;;;;;;5051960;28;20488;-73
2022/05/11 11:25:58;;;;;;;6.93;4.10;;;27.60;99.90;;;;;;4965657;28;20536;-73
2022/05/11 11:28:27;;;;;;;4.23;3.83;;;27.60;99.90;;;;;;4946970;28;20471;-74
2022/05/11 11:31:22;;;;;;;4.27;3.77;;;27.50;99.90;;;;;;5000841;28;20488;-73
2022/05/11 11:34:09;;;;;;;7.90;4.70;;;27.80;99.90;;;;;;4980336;28;20961;-73
2022/05/11 11:36:40;;;;;;;7.70;4.07;;;27.70;99.90;;;;;;5032751;28;20817;-73
2022/05/11 11:39:09;;;;;;;4.60;4.10;;;27.70;99.90;;;;;;5027780;28;20450;-74
2022/05/11 11:42:07;;;;;;;8.77;4.10;;;27.80;99.90;;;;;;5031626;28;20894;-73
2022/05/11 11:44:41;;;;;;;4.97;3.97;;;28.10;99.90;;;;;;5027131;28;20537;-74
2022/05/11 11:47:35;;;;;;;4.10;3.80;;;28.00;99.90;;;;;;5026974;28;20525;-74
2022/05/11 11:50:02;;;;;;;4.33;4.00;;;28.10;99.90;;;;;;5027791;28;20540;-73
2022/05/11 11:52:38;;;;;;;6.50;3.67;;;28.00;99.90;;;;;;5032873;28;20971;-74
2022/05/11 11:55:14;;;;;;;6.97;4.10;;;28.00;99.90;;;;;;5032016;28;21048;-73
2022/05/11 11:57:41;;;;;;;8.37;3.67;;;28.30;99.90;;;;;;5018347;28;20465;-73
2022/05/11 12:00:53;;;;;;;5.50;4.10;;;28.30;99.90;;;;;;5034896;28;20455;-73
2022/05/11 12:03:23;;;;;;;4.30;3.90;;;28.10;99.90;;;;;;5049403;28;20469;-72
2022/05/11 12:05:55;;;;;;;8.00;4.27;;;28.00;99.90;;;;;;5048834;28;20476;-73
2022/05/11 12:16:58;;;;;;;8.60;3.60;;;28.50;99.90;;;;;;5036821;28;20444;-74
2022/05/11 12:19:27;;;;;;;6.00;4.50;;;28.70;99.90;;;;;;5031654;28;20449;-72
2022/05/11 12:21:57;;;;;;;4.07;3.67;;;28.40;99.90;;;;;;5039698;28;20980;-72
2022/05/11 12:24:28;;;;;;;5.43;4.03;;;28.10;99.90;;;;;;5035952;28;20514;-73
2022/05/11 12:26:56;;;;;;;6.60;4.10;;;28.00;99.90;;;;;;5031092;28;20456;-73
2022/05/11 12:32:09;;;;;;;4.80;4.30;;;28.10;99.90;;;;;;5035005;28;20555;-72
2022/05/11 12:34:41;;;;;;;3.83;3.37;;;28.20;99.90;;;;;;5039701;28;20794;-71
2022/05/11 12:37:22;;;;;;;7.57;3.97;;;28.50;99.90;;;;;;5034714;28;20468;-71
2022/05/11 12:39:55;;;;;;;5.93;3.93;;;29.00;99.90;;;;;;5032929;28;21009;-72
2022/05/11 12:42:36;;;;;;;4.97;4.17;;;29.10;99.90;;;;;;5046639;28;20486;-72
2022/05/11 12:45:05;;;;;;;8.20;3.63;;;29.00;99.90;;;;;;5050754;28;20448;-72
2022/05/11 12:47:33;;;;;;;5.47;3.93;;;28.90;99.90;;;;;;5044731;28;20507;-72
2022/05/11 12:50:00;;;;;;;8.15;4.03;;;28.80;99.90;;;;;;5045529;28;20444;-72
2022/05/11 12:52:28;;;;;;;4.03;3.63;;;28.70;99.90;;;;;;5037348;28;20226;-72
2022/05/11 12:54:57;;;;;;;4.82;3.25;;;29.00;99.90;;;;;;5030417;28;20964;-72
2022/05/11 12:57:24;;;;;;;5.07;3.10;;;28.70;99.90;;;;;;5030517;28;21057;-74
2022/05/11 12:59:54;;;;;;;5.07;3.40;;;28.50;99.90;;;;;;5030884;28;20628;-74
2022/05/11 13:02:26;;;;;;;6.37;3.83;;;28.30;99.60;;;;;;5019386;28;20837;-73
2022/05/11 13:04:57;;;;;;;6.77;4.27;;;28.20;99.90;;;;;;5030140;28;20911;-74
2022/05/11 13:07:26;;;;;;;11.93;3.97;;;28.30;99.90;;;;;;5037101;28;20527;-72
2022/05/11 13:09:57;;;;;;;6.30;4.30;;;28.50;99.90;;;;;;5020546;28;20507;-72
2022/05/11 13:12:24;;;;;;;4.70;3.80;;;28.90;99.50;;;;;;5038086;28;20484;-72
2022/05/11 13:14:54;;;;;;;10.20;4.30;;;29.00;99.60;;;;;;5038309;28;20488;-73
2022/05/11 13:17:24;;;;;;;6.47;4.23;;;29.30;99.30;;;;;;5026382;28;20466;-72
2022/05/11 13:19:57;;;;;;;21.13;4.20;;;29.00;98.00;;;;;;5030606;28;20540;-72
2022/05/11 13:22:25;;;;;;;5.00;3.53;;;28.90;98.50;;;;;;5028616;28;20480;-73
2022/05/11 13:24:54;;;;;;;5.17;3.77;;;29.00;98.20;;;;;;5018497;28;20458;-73
2022/05/11 13:27:40;;;;;;;4.00;3.60;;;29.20;99.20;;;;;;5031122;28;20541;-72
2022/05/11 13:30:15;;;;;;;5.50;3.70;;;29.40;98.20;;;;;;5029978;28;20833;-72
2022/05/11 13:32:46;;;;;;;5.60;3.77;;;29.30;96.80;;;;;;5047288;28;20554;-73
2022/05/11 13:35:21;;;;;;;5.47;3.63;;;28.90;97.30;;;;;;5048484;28;20484;-73